createdAt,value
2024-03-12T00:00:30.093Z,99.90
2024-03-12T00:02:58.218Z,99.90
2024-03-12T00:05:25.920Z,99.90
2024-03-12T00:07:53.713Z,99.90
2024-03-12T00:10:21.634Z,99.90
2024-03-12T00:12:51.420Z,99.90
2024-03-12T00:15:21.433Z,99.90
2024-03-12T00:17:50.602Z,99.90
2024-03-12T00:20:19.380Z,99.90
2024-03-12T00:22:48.665Z,99.90
2024-03-12T00:25:17.784Z,99.90
2024-03-12T00:27:45.428Z,99.90
2024-03-12T00:30:14.785Z,99.90
2024-03-12T00:32:42.840Z,99.90
2024-03-12T00:35:14.257Z,99.90
2024-03-12T00:37:48.620Z,99.90
2024-03-12T00:40:18.138Z,99.90
2024-03-12T00:42:45.872Z,99.90
2024-03-12T00:45:14.668Z,99.90
2024-03-12T00:47:43.367Z,99.90
2024-03-12T00:50:12.834Z,99.90
2024-03-12T00:52:41.526Z,99.90
2024-03-12T00:55:10.779Z,99.90
2024-03-12T00:57:40.064Z,99.90
2024-03-12T01:00:18.077Z,99.90
2024-03-12T01:02:50.374Z,99.90
2024-03-12T01:05:21.974Z,99.90
2024-03-12T01:07:49.599Z,99.90
2024-03-12T01:10:21.982Z,99.90
2024-03-12T01:12:52.760Z,99.90
2024-03-12T01:15:22.087Z,99.90
2024-03-12T01:17:50.036Z,99.90
2024-03-12T01:20:20.361Z,99.90
2024-03-12T01:22:51.830Z,99.90
2024-03-12T01:25:22.684Z,99.90
2024-03-12T01:27:53.499Z,99.90
2024-03-12T01:30:27.942Z,99.90
2024-03-12T01:32:58.801Z,99.90
2024-03-12T01:35:26.846Z,99.90
2024-03-12T01:37:54.695Z,99.90
2024-03-12T01:40:31.839Z,99.90
2024-03-12T01:43:20.448Z,99.90
2024-03-12T01:45:48.286Z,99.90
2024-03-12T01:48:16.565Z,99.90
2024-03-12T01:50:45.181Z,99.90
2024-03-12T01:53:13.881Z,99.90
2024-03-12T01:55:45.136Z,99.90
2024-03-12T01:58:17.586Z,99.90
2024-03-12T02:00:47.265Z,99.90
2024-03-12T02:03:20.135Z,99.90
2024-03-12T02:05:48.374Z,99.90
2024-03-12T02:08:18.192Z,99.90
2024-03-12T02:10:47.294Z,99.90
2024-03-12T02:13:15.246Z,99.90
2024-03-12T02:15:43.291Z,99.90
2024-03-12T02:18:11.249Z,99.90
2024-03-12T02:20:41.833Z,99.90
2024-03-12T02:23:09.535Z,99.90
2024-03-12T02:25:37.187Z,99.90
2024-03-12T02:28:05.330Z,99.90
2024-03-12T02:30:33.254Z,99.90
2024-03-12T02:33:04.156Z,99.90
2024-03-12T02:35:36.068Z,99.90
2024-03-12T02:38:04.143Z,99.90
2024-03-12T02:40:31.885Z,99.90
2024-03-12T02:42:59.584Z,99.90
2024-03-12T02:45:27.624Z,99.90
2024-03-12T02:47:56.248Z,99.90
2024-03-12T02:50:25.757Z,99.90
2024-03-12T02:52:53.635Z,99.90
2024-03-12T02:55:21.729Z,99.90
2024-03-12T02:57:49.563Z,99.90
2024-03-12T03:00:17.900Z,99.90
2024-03-12T03:02:45.935Z,99.90
2024-03-12T03:05:14.733Z,99.90
2024-03-12T03:07:43.815Z,99.90
2024-03-12T03:10:13.315Z,99.90
2024-03-12T03:12:45.516Z,99.90
2024-03-12T03:15:14.543Z,99.90
2024-03-12T03:17:47.343Z,99.90
2024-03-12T03:20:18.573Z,99.90
2024-03-12T03:22:46.699Z,99.90
2024-03-12T03:25:15.242Z,99.90
2024-03-12T03:27:43.618Z,99.90
2024-03-12T03:30:17.263Z,99.90
2024-03-12T03:32:49.610Z,99.90
2024-03-12T03:35:19.565Z,99.90
2024-03-12T03:37:47.760Z,99.90
2024-03-12T03:40:24.927Z,99.90
2024-03-12T03:42:54.656Z,99.90
2024-03-12T03:45:22.606Z,99.90
2024-03-12T03:47:50.787Z,99.90
2024-03-12T03:50:18.951Z,99.90
2024-03-12T03:52:46.622Z,99.90
2024-03-12T03:55:15.459Z,99.90
2024-03-12T03:57:43.205Z,99.90
2024-03-12T04:00:14.437Z,99.90
2024-03-12T04:02:46.202Z,99.90
2024-03-12T04:05:14.232Z,99.90
2024-03-12T04:07:45.820Z,99.90
2024-03-12T04:10:14.281Z,99.90
2024-03-12T04:12:46.381Z,99.90
2024-03-12T04:15:14.690Z,99.90
2024-03-12T04:17:45.198Z,99.90
2024-03-12T04:20:13.622Z,99.90
2024-03-12T04:22:45.369Z,99.90
2024-03-12T04:25:14.072Z,99.90
2024-03-12T04:27:42.371Z,99.90
2024-03-12T04:30:12.040Z,99.90
2024-03-12T04:32:40.801Z,99.90
2024-03-12T04:35:11.182Z,99.90
2024-03-12T04:37:40.195Z,99.90
2024-03-12T04:40:09.035Z,99.90
2024-03-12T04:42:38.539Z,99.90
2024-03-12T04:45:08.607Z,99.90
2024-03-12T04:47:39.305Z,99.90
2024-03-12T04:50:09.656Z,99.90
2024-03-12T04:52:37.555Z,99.90
2024-03-12T04:55:06.785Z,99.90
2024-03-12T04:57:36.944Z,99.90
2024-03-12T05:00:15.907Z,99.90
2024-03-12T05:02:45.055Z,99.90
2024-03-12T05:05:19.742Z,99.90
2024-03-12T05:07:48.996Z,99.90
2024-03-12T05:10:17.630Z,99.90
2024-03-12T05:12:45.514Z,99.90
2024-03-12T05:15:13.221Z,99.90
2024-03-12T05:17:41.272Z,99.90
2024-03-12T05:20:15.613Z,99.90
2024-03-12T05:22:43.432Z,99.90
2024-03-12T05:25:12.122Z,99.90
2024-03-12T05:27:44.372Z,99.90
2024-03-12T05:30:16.408Z,99.90
2024-03-12T05:32:47.821Z,99.90
2024-03-12T05:35:23.416Z,99.90
2024-03-12T05:38:13.420Z,99.90
2024-03-12T05:40:45.255Z,99.90
2024-03-12T05:43:32.740Z,99.90
2024-03-12T05:46:19.307Z,99.90
2024-03-12T05:48:53.801Z,99.90
2024-03-12T05:51:21.911Z,99.90
2024-03-12T05:53:49.816Z,99.90
2024-03-12T05:56:19.497Z,99.90
2024-03-12T05:58:47.885Z,99.90
2024-03-12T06:01:16.238Z,99.90
2024-03-12T06:03:45.029Z,99.90
2024-03-12T06:06:14.195Z,99.90
2024-03-12T06:08:42.105Z,99.90
2024-03-12T06:11:09.916Z,99.90
2024-03-12T06:13:37.814Z,99.90
2024-03-12T06:16:09.102Z,99.90
2024-03-12T06:18:37.342Z,99.90
2024-03-12T06:21:07.458Z,99.90
2024-03-12T06:23:36.755Z,99.90
2024-03-12T06:26:05.891Z,99.90
2024-03-12T06:28:33.798Z,99.90
2024-03-12T06:31:01.589Z,99.90
2024-03-12T06:33:29.314Z,99.90
2024-03-12T06:35:57.318Z,99.90
2024-03-12T06:38:25.020Z,99.90
2024-03-12T06:40:52.777Z,99.90
2024-03-12T06:43:21.381Z,99.90
2024-03-12T06:45:49.214Z,99.90
2024-03-12T06:48:19.678Z,99.90
2024-03-12T06:50:47.636Z,99.90
2024-03-12T06:53:16.673Z,99.90
2024-03-12T06:55:47.407Z,99.90
2024-03-12T06:58:20.548Z,99.90
2024-03-12T07:00:52.230Z,99.90
2024-03-12T07:03:23.500Z,99.90
2024-03-12T07:05:52.266Z,99.90
2024-03-12T07:08:22.945Z,99.90
2024-03-12T07:10:52.034Z,99.90
2024-03-12T07:13:24.574Z,99.90
2024-03-12T07:15:52.576Z,99.90
2024-03-12T07:18:22.615Z,99.90
2024-03-12T07:20:54.041Z,99.90
2024-03-12T07:23:22.060Z,99.90
2024-03-12T07:25:49.836Z,99.90
2024-03-12T07:28:19.847Z,99.90
2024-03-12T07:30:49.943Z,99.90
2024-03-12T07:33:17.897Z,99.90
2024-03-12T07:35:45.743Z,99.90
2024-03-12T07:38:13.629Z,99.90
2024-03-12T07:40:44.705Z,99.90
2024-03-12T07:43:12.957Z,99.90
2024-03-12T07:45:47.685Z,99.90
2024-03-12T07:48:18.291Z,99.90
2024-03-12T07:50:46.109Z,99.90
2024-03-12T07:53:13.959Z,99.90
2024-03-12T07:55:43.572Z,99.90
2024-03-12T07:58:12.446Z,99.90
2024-03-12T08:00:40.433Z,99.90
2024-03-12T08:03:08.851Z,99.90
2024-03-12T08:05:36.521Z,99.90
2024-03-12T08:08:07.713Z,99.90
2024-03-12T08:10:35.671Z,99.90
2024-03-12T08:13:03.449Z,99.90
2024-03-12T08:15:31.166Z,99.90
2024-03-12T08:18:06.152Z,99.90
2024-03-12T08:20:40.972Z,99.90
2024-03-12T08:23:08.726Z,99.90
2024-03-12T08:25:49.956Z,99.90
2024-03-12T08:28:23.191Z,99.90
2024-03-12T08:30:51.029Z,99.90
2024-03-12T08:33:20.401Z,99.90
2024-03-12T08:35:48.427Z,99.90
2024-03-12T08:38:17.179Z,99.90
2024-03-12T08:40:45.339Z,99.90
2024-03-12T08:43:14.537Z,99.90
2024-03-12T08:45:42.733Z,99.90
2024-03-12T08:48:10.841Z,99.90
2024-03-12T08:50:38.858Z,99.90
2024-03-12T08:53:06.944Z,99.90
2024-03-12T08:55:35.947Z,99.90
2024-03-12T08:58:04.157Z,99.90
2024-03-12T09:00:33.585Z,99.90
2024-03-12T09:03:02.199Z,99.90
2024-03-12T09:05:30.230Z,99.90
2024-03-12T09:07:58.255Z,99.90
2024-03-12T09:10:26.277Z,99.90
2024-03-12T09:12:54.275Z,99.90
2024-03-12T09:15:25.192Z,99.90
2024-03-12T09:17:54.203Z,99.90
2024-03-12T09:20:23.146Z,99.90
2024-03-12T09:22:51.789Z,99.90
2024-03-12T09:25:20.404Z,99.90
2024-03-12T09:27:48.532Z,99.90
2024-03-12T09:30:18.375Z,99.90
2024-03-12T09:32:46.300Z,99.90
2024-03-12T09:35:14.208Z,99.90
2024-03-12T09:37:42.243Z,99.90
2024-03-12T09:40:12.853Z,99.90
2024-03-12T09:42:45.821Z,99.90
2024-03-12T09:45:13.959Z,99.90
2024-03-12T09:47:43.861Z,99.90
2024-03-12T09:50:18.281Z,99.90
2024-03-12T09:52:49.460Z,99.90
2024-03-12T09:55:19.630Z,99.90
2024-03-12T09:57:48.194Z,99.90
2024-03-12T10:00:29.070Z,99.90
2024-03-12T10:02:57.029Z,99.90
2024-03-12T10:05:25.310Z,99.90
2024-03-12T10:08:15.791Z,99.90
2024-03-12T10:10:48.600Z,99.90
2024-03-12T10:13:18.155Z,99.90
2024-03-12T10:15:51.738Z,99.90
2024-03-12T10:18:20.621Z,99.90
2024-03-12T10:20:58.934Z,99.90
2024-03-12T10:23:28.859Z,99.90
2024-03-12T10:26:11.781Z,99.90
2024-03-12T10:28:41.265Z,99.90
2024-03-12T10:31:13.515Z,99.90
2024-03-12T10:33:44.192Z,99.90
2024-03-12T10:36:12.549Z,99.90
2024-03-12T10:38:41.708Z,99.90
2024-03-12T10:41:22.304Z,99.90
2024-03-12T10:43:52.027Z,99.90
2024-03-12T10:46:21.109Z,99.90
2024-03-12T10:48:51.661Z,99.90
2024-03-12T10:51:20.839Z,99.90
2024-03-12T10:53:54.740Z,99.90
2024-03-12T10:56:23.439Z,99.90
2024-03-12T10:58:55.999Z,99.90
2024-03-12T11:01:25.292Z,99.90
2024-03-12T11:03:58.105Z,99.90
2024-03-12T11:06:27.373Z,99.90
2024-03-12T11:08:56.892Z,99.90
2024-03-12T11:11:24.810Z,99.90
2024-03-12T11:13:54.412Z,99.90
2024-03-12T11:16:22.451Z,99.90
2024-03-12T11:18:50.541Z,99.90
2024-03-12T11:21:32.693Z,99.90
2024-03-12T11:24:00.643Z,99.90
2024-03-12T11:29:01.588Z,99.90
2024-03-12T11:31:38.174Z,99.90
2024-03-12T11:34:06.582Z,99.90
2024-03-12T11:36:41.451Z,99.90
2024-03-12T11:39:13.694Z,99.90
2024-03-12T11:42:02.907Z,99.90
2024-03-12T11:44:56.716Z,99.90
2024-03-12T11:47:35.190Z,99.90
2024-03-12T11:50:06.274Z,99.90
2024-03-12T11:52:35.052Z,99.90
2024-03-12T11:55:05.607Z,99.90
2024-03-12T11:57:33.751Z,99.90
2024-03-12T12:00:03.573Z,99.90
2024-03-12T12:02:43.958Z,99.90
2024-03-12T12:05:14.557Z,99.90
2024-03-12T12:07:42.424Z,99.60
2024-03-12T12:10:12.178Z,99.00
2024-03-12T12:12:40.243Z,99.20
2024-03-12T12:15:12.050Z,96.50
2024-03-12T12:17:39.740Z,96.30
2024-03-12T12:20:19.730Z,96.70
2024-03-12T12:22:48.173Z,99.90
2024-03-12T12:25:20.191Z,99.90
2024-03-12T12:27:48.626Z,99.90
2024-03-12T12:30:18.695Z,99.90
2024-03-12T12:32:47.087Z,99.90
2024-03-12T12:35:16.412Z,99.90
2024-03-12T12:37:47.270Z,99.80
2024-03-12T12:40:19.078Z,99.20
2024-03-12T12:42:51.868Z,99.70
2024-03-12T12:45:20.147Z,99.90
2024-03-12T12:47:51.539Z,99.90
2024-03-12T12:50:31.395Z,99.80
2024-03-12T12:53:05.808Z,99.90
2024-03-12T12:55:33.796Z,98.40
2024-03-12T12:58:08.075Z,99.90
2024-03-12T13:00:41.554Z,99.90
2024-03-12T13:03:19.024Z,99.90
2024-03-12T13:05:48.091Z,99.90
2024-03-12T13:08:23.656Z,99.90
2024-03-12T13:11:06.318Z,99.90
2024-03-12T13:13:36.482Z,99.90
2024-03-12T13:16:30.442Z,99.90
2024-03-12T13:18:58.263Z,99.90
2024-03-12T13:21:26.832Z,99.90
2024-03-12T13:23:55.053Z,99.90
2024-03-12T13:26:24.380Z,99.90
2024-03-12T13:28:55.473Z,99.90
2024-03-12T13:31:23.901Z,99.90
2024-03-12T13:33:54.887Z,99.90
2024-03-12T13:36:26.524Z,99.90
2024-03-12T13:38:54.966Z,99.90
2024-03-12T13:41:26.111Z,99.90
2024-03-12T13:43:56.324Z,99.90
2024-03-12T13:46:25.727Z,99.90
2024-03-12T13:49:15.687Z,99.90
2024-03-12T13:51:44.713Z,99.90
2024-03-12T13:54:12.676Z,99.90
2024-03-12T13:56:41.451Z,99.90
2024-03-12T13:59:09.246Z,99.90
2024-03-12T14:01:38.309Z,99.90
2024-03-12T14:04:07.923Z,99.90
2024-03-12T14:06:36.233Z,99.90
2024-03-12T14:09:06.249Z,99.90
2024-03-12T14:11:34.069Z,98.50
2024-03-12T14:14:02.084Z,99.80
2024-03-12T14:16:31.428Z,99.90
2024-03-12T14:18:59.304Z,99.90
2024-03-12T14:21:28.823Z,99.60
2024-03-12T14:23:58.717Z,99.30
2024-03-12T14:26:26.564Z,99.90
2024-03-12T14:28:54.277Z,99.50
2024-03-12T14:31:22.043Z,98.90
2024-03-12T14:33:50.018Z,98.00
2024-03-12T14:36:18.404Z,98.10
2024-03-12T14:38:47.007Z,96.50
2024-03-12T14:41:15.807Z,97.90
2024-03-12T14:43:43.421Z,97.70
2024-03-12T14:46:13.704Z,98.30
2024-03-12T14:48:41.568Z,97.90
2024-03-12T14:51:09.992Z,97.40
2024-03-12T14:53:37.733Z,98.10
2024-03-12T14:56:06.103Z,97.70
2024-03-12T14:58:33.914Z,97.80
2024-03-12T15:01:01.654Z,96.20
2024-03-12T15:03:29.498Z,95.80
2024-03-12T15:05:58.762Z,95.60
2024-03-12T15:08:26.561Z,95.50
2024-03-12T15:10:54.264Z,96.10
2024-03-12T15:13:22.177Z,96.60
2024-03-12T15:15:51.333Z,96.40
2024-03-12T15:18:21.402Z,97.20
2024-03-12T15:20:49.482Z,97.30
2024-03-12T15:23:17.239Z,97.00
2024-03-12T15:25:44.997Z,96.70
2024-03-12T15:28:12.800Z,95.40
2024-03-12T15:30:43.406Z,94.30
2024-03-12T15:33:12.423Z,94.40
2024-03-12T15:35:40.710Z,93.70
2024-03-12T15:38:08.591Z,93.50
2024-03-12T15:40:36.541Z,94.20
2024-03-12T15:43:07.019Z,94.50
2024-03-12T15:45:35.228Z,94.70
2024-03-12T15:48:05.010Z,95.80
2024-03-12T15:50:33.406Z,94.30
2024-03-12T15:53:01.205Z,94.60
2024-03-12T15:55:29.131Z,94.80
2024-03-12T15:57:57.089Z,95.40
2024-03-12T16:00:25.208Z,95.90
2024-03-12T16:02:52.965Z,95.50
2024-03-12T16:05:20.996Z,95.70
2024-03-12T16:07:49.676Z,96.50
2024-03-12T16:10:17.868Z,96.30
2024-03-12T16:12:46.532Z,97.10
2024-03-12T16:15:15.524Z,95.80
2024-03-12T16:17:43.990Z,95.50
2024-03-12T16:20:15.840Z,96.40
2024-03-12T16:22:44.524Z,96.60
2024-03-12T16:25:12.654Z,96.30
2024-03-12T16:27:43.927Z,96.30
2024-03-12T16:30:15.186Z,96.50
2024-03-12T16:32:45.061Z,97.20
2024-03-12T16:35:16.558Z,97.50
2024-03-12T16:37:45.178Z,97.40
2024-03-12T16:40:13.788Z,98.00
2024-03-12T16:42:43.655Z,98.30
2024-03-12T16:45:12.568Z,98.30
2024-03-12T16:47:40.750Z,98.40
2024-03-12T16:50:14.664Z,98.70
2024-03-12T16:52:42.911Z,98.70
2024-03-12T16:55:13.670Z,99.10
2024-03-12T16:57:44.129Z,99.30
2024-03-12T17:00:16.962Z,99.80
2024-03-12T17:02:47.328Z,99.90
2024-03-12T17:05:20.511Z,99.90
2024-03-12T17:07:52.290Z,99.90
2024-03-12T17:10:24.769Z,99.90
2024-03-12T17:12:56.401Z,99.90
2024-03-12T17:15:24.832Z,99.90
2024-03-12T17:17:55.331Z,99.90
2024-03-12T17:20:26.362Z,99.90
2024-03-12T17:22:54.339Z,99.90
2024-03-12T17:25:24.871Z,99.90
2024-03-12T17:27:55.356Z,99.90
2024-03-12T17:30:25.974Z,99.90
2024-03-12T17:32:56.562Z,99.90
2024-03-12T17:35:25.114Z,99.90
2024-03-12T17:37:59.273Z,99.90
2024-03-12T17:40:29.411Z,99.90
2024-03-12T17:43:03.524Z,99.90
2024-03-12T17:45:33.542Z,99.90
2024-03-12T17:48:08.120Z,99.90
2024-03-12T17:50:38.221Z,99.90
2024-03-12T17:53:11.015Z,99.90
2024-03-12T17:55:43.674Z,99.90
2024-03-12T17:58:14.784Z,99.90
2024-03-12T18:00:44.846Z,99.90
2024-03-12T18:03:16.108Z,99.90
2024-03-12T18:05:44.230Z,99.90
2024-03-12T18:08:26.148Z,99.90
2024-03-12T18:10:58.327Z,99.90
2024-03-12T18:13:29.451Z,99.90
2024-03-12T18:15:57.620Z,99.90
2024-03-12T18:18:26.007Z,99.90
2024-03-12T18:20:53.970Z,99.90
2024-03-12T18:23:29.995Z,99.90
2024-03-12T18:26:00.842Z,99.90
2024-03-12T18:28:31.621Z,99.90
2024-03-12T18:31:00.778Z,99.90
2024-03-12T18:33:28.473Z,99.90
2024-03-12T18:35:59.511Z,99.90
2024-03-12T18:38:27.309Z,99.90
2024-03-12T18:40:55.732Z,99.90
2024-03-12T18:43:28.578Z,99.90
2024-03-12T18:45:58.627Z,99.90
2024-03-12T18:48:33.867Z,99.90
2024-03-12T18:51:06.088Z,99.90
2024-03-12T18:53:34.972Z,99.90
2024-03-12T18:56:08.488Z,99.90
2024-03-12T18:58:36.504Z,99.90
2024-03-12T19:01:05.328Z,99.90
2024-03-12T19:03:56.219Z,99.90
2024-03-12T19:06:27.320Z,99.90
2024-03-12T19:09:03.481Z,99.90
2024-03-12T19:11:41.228Z,99.90
2024-03-12T19:14:09.423Z,99.90
2024-03-12T19:16:43.580Z,99.90
2024-03-12T19:19:11.645Z,99.90
2024-03-12T19:21:42.601Z,99.90
2024-03-12T19:24:13.347Z,99.90
2024-03-12T19:26:43.898Z,99.90
2024-03-12T19:29:13.376Z,99.90
2024-03-12T19:31:44.268Z,99.90
2024-03-12T19:34:17.273Z,99.90
2024-03-12T19:36:56.807Z,99.90
2024-03-12T19:39:30.317Z,99.90
2024-03-12T19:42:01.051Z,99.90
2024-03-12T19:44:29.072Z,99.90
2024-03-12T19:46:57.415Z,99.90
2024-03-12T19:49:25.918Z,99.90
2024-03-12T19:54:39.431Z,99.90
2024-03-12T19:57:14.878Z,99.90
2024-03-12T19:59:46.161Z,99.90
2024-03-12T20:02:15.081Z,99.90
2024-03-12T20:04:46.827Z,99.90
2024-03-12T20:07:17.092Z,99.90
2024-03-12T20:09:50.036Z,99.90
2024-03-12T20:12:17.933Z,99.90
2024-03-12T20:14:48.546Z,99.90
2024-03-12T20:17:22.345Z,99.90
2024-03-12T20:19:58.536Z,99.90
2024-03-12T20:22:31.069Z,99.90
2024-03-12T20:25:01.271Z,99.90
2024-03-12T20:27:40.758Z,99.90
2024-03-12T20:30:15.188Z,99.90
2024-03-12T20:32:48.898Z,99.90
2024-03-12T20:35:21.133Z,99.90
2024-03-12T20:38:05.138Z,99.90
2024-03-12T20:40:36.932Z,99.90
2024-03-12T20:43:07.771Z,99.90
2024-03-12T20:45:41.458Z,99.90
2024-03-12T20:48:12.410Z,99.90
2024-03-12T20:50:46.380Z,99.90
2024-03-12T20:53:18.091Z,99.90
2024-03-12T20:55:45.943Z,99.90
2024-03-12T20:58:21.607Z,99.90
2024-03-12T21:00:51.986Z,99.90
2024-03-12T21:03:20.161Z,99.90
2024-03-12T21:05:52.466Z,99.90
2024-03-12T21:08:24.645Z,99.90
2024-03-12T21:10:54.900Z,99.90
2024-03-12T21:13:29.038Z,99.90
2024-03-12T21:15:59.949Z,99.90
2024-03-12T21:18:29.089Z,99.90
2024-03-12T21:21:02.784Z,99.90
2024-03-12T21:23:33.018Z,99.90
2024-03-12T21:26:06.891Z,99.90
2024-03-12T21:28:36.719Z,99.90
2024-03-12T21:31:06.458Z,99.90
2024-03-12T21:33:36.219Z,99.90
2024-03-12T21:36:10.430Z,99.90
2024-03-12T21:38:39.548Z,99.90
2024-03-12T21:41:12.723Z,99.90
2024-03-12T21:43:46.150Z,99.90
2024-03-12T21:46:25.416Z,99.90
2024-03-12T21:48:55.646Z,99.90
2024-03-12T21:51:29.540Z,99.90
2024-03-12T21:54:00.343Z,99.90
2024-03-12T21:56:28.022Z,99.90
2024-03-12T21:59:01.574Z,99.90
2024-03-12T22:01:29.372Z,99.90
2024-03-12T22:03:59.977Z,99.90
2024-03-12T22:06:29.024Z,99.90
2024-03-12T22:08:58.004Z,99.90
2024-03-12T22:11:27.998Z,99.90
2024-03-12T22:13:55.845Z,99.90
2024-03-12T22:16:36.076Z,99.90
2024-03-12T22:19:07.522Z,99.90
2024-03-12T22:21:36.241Z,99.90
2024-03-12T22:24:07.930Z,99.90
2024-03-12T22:26:38.195Z,99.90
2024-03-12T22:29:09.176Z,99.90
2024-03-12T22:31:38.267Z,99.90
2024-03-12T22:34:05.899Z,99.90
2024-03-12T22:36:33.627Z,99.90
2024-03-12T22:39:01.799Z,99.90
2024-03-12T22:41:31.000Z,99.90
2024-03-12T22:43:59.756Z,99.90
2024-03-12T22:46:29.029Z,99.90
2024-03-12T22:48:57.074Z,99.90
2024-03-12T22:51:25.068Z,99.90
2024-03-12T22:53:52.979Z,99.90
2024-03-12T22:56:22.524Z,99.90
2024-03-12T22:58:50.638Z,99.90
2024-03-12T23:01:18.787Z,99.90
2024-03-12T23:03:47.212Z,99.90
2024-03-12T23:06:15.299Z,99.90
2024-03-12T23:08:43.836Z,99.90
2024-03-12T23:11:12.168Z,99.90
2024-03-12T23:13:40.084Z,99.90
2024-03-12T23:16:08.182Z,99.90
2024-03-12T23:18:38.142Z,99.90
2024-03-12T23:21:06.343Z,99.90
2024-03-12T23:23:34.155Z,99.90
2024-03-12T23:26:02.320Z,99.90
2024-03-12T23:28:30.085Z,99.90
2024-03-12T23:30:59.098Z,99.90
2024-03-12T23:33:28.912Z,99.90
2024-03-12T23:35:57.848Z,99.90
2024-03-12T23:38:25.593Z,99.90
2024-03-12T23:40:54.516Z,99.90
2024-03-12T23:43:22.480Z,99.90
2024-03-12T23:45:50.406Z,99.90
2024-03-12T23:48:18.240Z,99.90
2024-03-12T23:50:46.093Z,99.90
2024-03-12T23:53:15.076Z,99.90
2024-03-12T23:55:44.144Z,99.90
2024-03-12T23:58:11.918Z,99.90
